sensor_id;sensor_type;location;lat;lon;timestamp;P1;durP1;ratioP1;P2;durP2;ratioP2
52294;SDS011;38243;53.212;6.574;2023-04-24T00:00:03;1.08;;;0.70;;
52294;SDS011;38243;53.212;6.574;2023-04-24T00:02:37;1.50;;;0.52;;
52294;SDS011;38243;53.212;6.574;2023-04-24T00:05:04;0.50;;;0.40;;
52294;SDS011;38243;53.212;6.574;2023-04-24T00:07:30;0.80;;;0.60;;
52294;SDS011;38243;53.212;6.574;2023-04-24T00:09:56;0.60;;;0.60;;
52294;SDS011;38243;53.212;6.574;2023-04-24T00:12:22;1.80;;;0.40;;
52294;SDS011;38243;53.212;6.574;2023-04-24T00:14:48;0.75;;;0.50;;
52294;SDS011;38243;53.212;6.574;2023-04-24T00:17:14;0.40;;;0.40;;
52294;SDS011;38243;53.212;6.574;2023-04-24T00:19:40;0.85;;;0.68;;
52294;SDS011;38243;53.212;6.574;2023-04-24T00:22:06;0.80;;;0.50;;
52294;SDS011;38243;53.212;6.574;2023-04-24T00:24:31;1.77;;;0.55;;
52294;SDS011;38243;53.212;6.574;2023-04-24T00:26:57;1.50;;;0.77;;
52294;SDS011;38243;53.212;6.574;2023-04-24T00:29:23;0.80;;;0.40;;
52294;SDS011;38243;53.212;6.574;2023-04-24T00:31:49;0.68;;;0.50;;
52294;SDS011;38243;53.212;6.574;2023-04-24T00:34:15;1.30;;;0.50;;
52294;SDS011;38243;53.212;6.574;2023-04-24T00:36:41;0.63;;;0.47;;
52294;SDS011;38243;53.212;6.574;2023-04-24T00:39:06;0.67;;;0.50;;
52294;SDS011;38243;53.212;6.574;2023-04-24T00:41:35;0.82;;;0.40;;
52294;SDS011;38243;53.212;6.574;2023-04-24T00:44:01;1.08;;;0.43;;
52294;SDS011;38243;53.212;6.574;2023-04-24T00:46:26;1.55;;;0.55;;
52294;SDS011;38243;53.212;6.574;2023-04-24T00:48:52;0.90;;;0.40;;
52294;SDS011;38243;53.212;6.574;2023-04-24T00:51:18;1.50;;;0.50;;
52294;SDS011;38243;53.212;6.574;2023-04-24T00:53:45;0.75;;;0.30;;
52294;SDS011;38243;53.212;6.574;2023-04-24T00:56:10;1.37;;;0.50;;
52294;SDS011;38243;53.212;6.574;2023-04-24T00:58:36;0.30;;;0.30;;
52294;SDS011;38243;53.212;6.574;2023-04-24T01:01:02;0.60;;;0.30;;
52294;SDS011;38243;53.212;6.574;2023-04-24T01:03:32;1.13;;;0.30;;
52294;SDS011;38243;53.212;6.574;2023-04-24T01:05:58;0.30;;;0.30;;
52294;SDS011;38243;53.212;6.574;2023-04-24T01:08:24;0.33;;;0.27;;
52294;SDS011;38243;53.212;6.574;2023-04-24T01:10:53;0.57;;;0.30;;
52294;SDS011;38243;53.212;6.574;2023-04-24T01:13:19;1.45;;;0.30;;
52294;SDS011;38243;53.212;6.574;2023-04-24T01:15:46;0.80;;;0.40;;
52294;SDS011;38243;53.212;6.574;2023-04-24T01:18:12;1.00;;;0.38;;
52294;SDS011;38243;53.212;6.574;2023-04-24T01:20:42;1.10;;;0.30;;
52294;SDS011;38243;53.212;6.574;2023-04-24T01:23:10;1.58;;;0.32;;
52294;SDS011;38243;53.212;6.574;2023-04-24T01:25:36;1.40;;;0.30;;
52294;SDS011;38243;53.212;6.574;2023-04-24T01:28:03;1.25;;;0.40;;
52294;SDS011;38243;53.212;6.574;2023-04-24T01:30:29;1.77;;;0.60;;
52294;SDS011;38243;53.212;6.574;2023-04-24T01:32:56;1.17;;;0.30;;
52294;SDS011;38243;53.212;6.574;2023-04-24T01:35:23;4.05;;;0.57;;
52294;SDS011;38243;53.212;6.574;2023-04-24T01:37:50;3.47;;;0.30;;
52294;SDS011;38243;53.212;6.574;2023-04-24T01:40:15;1.07;;;0.40;;
52294;SDS011;38243;53.212;6.574;2023-04-24T01:42:41;1.90;;;0.40;;
52294;SDS011;38243;53.212;6.574;2023-04-24T01:45:08;1.23;;;0.30;;
52294;SDS011;38243;53.212;6.574;2023-04-24T01:47:36;1.55;;;0.30;;
52294;SDS011;38243;53.212;6.574;2023-04-24T01:50:03;1.98;;;0.50;;
52294;SDS011;38243;53.212;6.574;2023-04-24T01:52:30;0.90;;;0.20;;
52294;SDS011;38243;53.212;6.574;2023-04-24T01:55:02;0.22;;;0.20;;
52294;SDS011;38243;53.212;6.574;2023-04-24T01:57:29;1.20;;;0.30;;
52294;SDS011;38243;53.212;6.574;2023-04-24T01:59:56;0.65;;;0.30;;
52294;SDS011;38243;53.212;6.574;2023-04-24T02:02:22;0.30;;;0.13;;
52294;SDS011;38243;53.212;6.574;2023-04-24T02:04:52;1.20;;;0.30;;
52294;SDS011;38243;53.212;6.574;2023-04-24T02:07:18;2.20;;;0.30;;
52294;SDS011;38243;53.212;6.574;2023-04-24T02:09:44;1.20;;;0.28;;
52294;SDS011;38243;53.212;6.574;2023-04-24T02:12:10;1.30;;;0.40;;
52294;SDS011;38243;53.212;6.574;2023-04-24T02:14:35;1.67;;;0.20;;
52294;SDS011;38243;53.212;6.574;2023-04-24T02:17:01;1.83;;;0.30;;
52294;SDS011;38243;53.212;6.574;2023-04-24T02:19:27;1.30;;;0.30;;
52294;SDS011;38243;53.212;6.574;2023-04-24T02:21:53;2.90;;;0.47;;
52294;SDS011;38243;53.212;6.574;2023-04-24T02:24:19;2.43;;;0.23;;
52294;SDS011;38243;53.212;6.574;2023-04-24T02:26:45;1.75;;;0.25;;
52294;SDS011;38243;53.212;6.574;2023-04-24T02:29:11;2.13;;;0.20;;
52294;SDS011;38243;53.212;6.574;2023-04-24T02:31:37;2.43;;;0.40;;
52294;SDS011;38243;53.212;6.574;2023-04-24T02:34:03;0.82;;;0.30;;
52294;SDS011;38243;53.212;6.574;2023-04-24T02:36:28;2.65;;;0.20;;
52294;SDS011;38243;53.212;6.574;2023-04-24T02:38:55;0.70;;;0.20;;
52294;SDS011;38243;53.212;6.574;2023-04-24T02:41:21;0.68;;;0.20;;
52294;SDS011;38243;53.212;6.574;2023-04-24T02:43:47;1.90;;;0.20;;
52294;SDS011;38243;53.212;6.574;2023-04-24T02:46:12;1.83;;;0.20;;
52294;SDS011;38243;53.212;6.574;2023-04-24T02:48:38;1.40;;;0.25;;
52294;SDS011;38243;53.212;6.574;2023-04-24T02:51:04;1.37;;;0.20;;
52294;SDS011;38243;53.212;6.574;2023-04-24T02:53:30;0.47;;;0.30;;
52294;SDS011;38243;53.212;6.574;2023-04-24T02:55:55;0.60;;;0.27;;
52294;SDS011;38243;53.212;6.574;2023-04-24T02:58:21;1.20;;;0.28;;
52294;SDS011;38243;53.212;6.574;2023-04-24T03:00:47;0.35;;;0.28;;
52294;SDS011;38243;53.212;6.574;2023-04-24T03:03:13;0.87;;;0.20;;
52294;SDS011;38243;53.212;6.574;2023-04-24T03:05:40;0.63;;;0.30;;
52294;SDS011;38243;53.212;6.574;2023-04-24T03:08:06;0.60;;;0.30;;
52294;SDS011;38243;53.212;6.574;2023-04-24T03:10:31;0.70;;;0.20;;
52294;SDS011;38243;53.212;6.574;2023-04-24T03:12:57;1.15;;;0.30;;
52294;SDS011;38243;53.212;6.574;2023-04-24T03:15:23;1.83;;;0.23;;
52294;SDS011;38243;53.212;6.574;2023-04-24T03:17:49;0.45;;;0.20;;
52294;SDS011;38243;53.212;6.574;2023-04-24T03:20:14;0.50;;;0.20;;
52294;SDS011;38243;53.212;6.574;2023-04-24T03:22:40;0.65;;;0.30;;
52294;SDS011;38243;53.212;6.574;2023-04-24T03:25:06;0.70;;;0.30;;
52294;SDS011;38243;53.212;6.574;2023-04-24T03:27:34;0.28;;;0.22;;
52294;SDS011;38243;53.212;6.574;2023-04-24T03:30:00;2.50;;;0.40;;
52294;SDS011;38243;53.212;6.574;2023-04-24T03:32:26;0.28;;;0.20;;
52294;SDS011;38243;53.212;6.574;2023-04-24T03:34:52;0.50;;;0.20;;
52294;SDS011;38243;53.212;6.574;2023-04-24T03:37:18;0.68;;;0.30;;
52294;SDS011;38243;53.212;6.574;2023-04-24T03:39:44;1.45;;;0.35;;
52294;SDS011;38243;53.212;6.574;2023-04-24T03:42:09;0.33;;;0.30;;
52294;SDS011;38243;53.212;6.574;2023-04-24T03:44:35;0.60;;;0.20;;
52294;SDS011;38243;53.212;6.574;2023-04-24T03:47:01;0.60;;;0.40;;
52294;SDS011;38243;53.212;6.574;2023-04-24T03:49:27;1.40;;;0.20;;
52294;SDS011;38243;53.212;6.574;2023-04-24T03:51:53;0.55;;;0.38;;
52294;SDS011;38243;53.212;6.574;2023-04-24T03:54:19;0.70;;;0.50;;
52294;SDS011;38243;53.212;6.574;2023-04-24T03:56:44;0.85;;;0.30;;
52294;SDS011;38243;53.212;6.574;2023-04-24T03:59:10;1.88;;;0.60;;
52294;SDS011;38243;53.212;6.574;2023-04-24T04:01:36;0.38;;;0.32;;
52294;SDS011;38243;53.212;6.574;2023-04-24T04:04:02;1.07;;;0.40;;
52294;SDS011;38243;53.212;6.574;2023-04-24T04:06:29;0.50;;;0.38;;
52294;SDS011;38243;53.212;6.574;2023-04-24T04:08:55;0.43;;;0.43;;
52294;SDS011;38243;53.212;6.574;2023-04-24T04:11:22;0.50;;;0.30;;
52294;SDS011;38243;53.212;6.574;2023-04-24T04:13:48;0.40;;;0.35;;
52294;SDS011;38243;53.212;6.574;2023-04-24T04:16:14;0.40;;;0.30;;
52294;SDS011;38243;53.212;6.574;2023-04-24T04:18:42;0.70;;;0.40;;
52294;SDS011;38243;53.212;6.574;2023-04-24T04:21:08;1.90;;;0.40;;
52294;SDS011;38243;53.212;6.574;2023-04-24T04:23:33;1.37;;;0.50;;
52294;SDS011;38243;53.212;6.574;2023-04-24T04:26:00;0.60;;;0.30;;
52294;SDS011;38243;53.212;6.574;2023-04-24T04:28:26;1.10;;;0.30;;
52294;SDS011;38243;53.212;6.574;2023-04-24T04:30:52;2.30;;;0.30;;
52294;SDS011;38243;53.212;6.574;2023-04-24T04:33:23;1.10;;;0.40;;
52294;SDS011;38243;53.212;6.574;2023-04-24T04:35:49;1.98;;;0.38;;
52294;SDS011;38243;53.212;6.574;2023-04-24T04:38:19;0.70;;;0.22;;
52294;SDS011;38243;53.212;6.574;2023-04-24T04:40:45;2.35;;;0.50;;
52294;SDS011;38243;53.212;6.574;2023-04-24T04:43:11;0.43;;;0.30;;
52294;SDS011;38243;53.212;6.574;2023-04-24T04:45:38;1.73;;;0.30;;
52294;SDS011;38243;53.212;6.574;2023-04-24T04:48:05;0.35;;;0.30;;
52294;SDS011;38243;53.212;6.574;2023-04-24T04:50:33;0.75;;;0.40;;
52294;SDS011;38243;53.212;6.574;2023-04-24T04:52:58;1.30;;;0.30;;
52294;SDS011;38243;53.212;6.574;2023-04-24T04:55:24;0.77;;;0.50;;
52294;SDS011;38243;53.212;6.574;2023-04-24T04:57:51;0.70;;;0.20;;
52294;SDS011;38243;53.212;6.574;2023-04-24T05:00:17;1.55;;;0.30;;
52294;SDS011;38243;53.212;6.574;2023-04-24T05:02:43;1.35;;;0.25;;
52294;SDS011;38243;53.212;6.574;2023-04-24T05:05:09;0.88;;;0.30;;
52294;SDS011;38243;53.212;6.574;2023-04-24T05:07:35;0.80;;;0.40;;
52294;SDS011;38243;53.212;6.574;2023-04-24T05:10:01;0.70;;;0.20;;
52294;SDS011;38243;53.212;6.574;2023-04-24T05:12:27;1.47;;;0.20;;
52294;SDS011;38243;53.212;6.574;2023-04-24T05:14:52;1.27;;;0.20;;
52294;SDS011;38243;53.212;6.574;2023-04-24T05:17:18;0.20;;;0.10;;
52294;SDS011;38243;53.212;6.574;2023-04-24T05:19:44;1.40;;;0.20;;
52294;SDS011;38243;53.212;6.574;2023-04-24T05:22:10;1.20;;;0.20;;
52294;SDS011;38243;53.212;6.574;2023-04-24T05:24:36;0.35;;;0.10;;
52294;SDS011;38243;53.212;6.574;2023-04-24T05:27:03;0.70;;;0.20;;
52294;SDS011;38243;53.212;6.574;2023-04-24T05:29:32;0.20;;;0.10;;
52294;SDS011;38243;53.212;6.574;2023-04-24T05:31:58;1.00;;;0.17;;
52294;SDS011;38243;53.212;6.574;2023-04-24T05:34:25;1.08;;;0.13;;
52294;SDS011;38243;53.212;6.574;2023-04-24T05:36:51;1.80;;;0.20;;
52294;SDS011;38243;53.212;6.574;2023-04-24T05:39:18;0.22;;;0.10;;
52294;SDS011;38243;53.212;6.574;2023-04-24T05:41:44;1.35;;;0.40;;
52294;SDS011;38243;53.212;6.574;2023-04-24T05:44:10;0.60;;;0.20;;
52294;SDS011;38243;53.212;6.574;2023-04-24T05:46:36;2.95;;;0.20;;
52294;SDS011;38243;53.212;6.574;2023-04-24T05:49:02;2.10;;;0.10;;
52294;SDS011;38243;53.212;6.574;2023-04-24T05:51:28;0.30;;;0.10;;
52294;SDS011;38243;53.212;6.574;2023-04-24T05:53:54;0.40;;;0.20;;
52294;SDS011;38243;53.212;6.574;2023-04-24T05:56:19;0.70;;;0.20;;
52294;SDS011;38243;53.212;6.574;2023-04-24T05:58:45;0.70;;;0.20;;
52294;SDS011;38243;53.212;6.574;2023-04-24T06:01:12;0.75;;;0.17;;
52294;SDS011;38243;53.212;6.574;2023-04-24T06:03:40;1.08;;;0.10;;
52294;SDS011;38243;53.212;6.574;2023-04-24T06:06:06;0.32;;;0.15;;
52294;SDS011;38243;53.212;6.574;2023-04-24T06:08:33;2.10;;;0.30;;
52294;SDS011;38243;53.212;6.574;2023-04-24T06:10:59;0.70;;;0.30;;
52294;SDS011;38243;53.212;6.574;2023-04-24T06:13:24;0.83;;;0.20;;
52294;SDS011;38243;53.212;6.574;2023-04-24T06:15:50;0.43;;;0.20;;
52294;SDS011;38243;53.212;6.574;2023-04-24T06:18:18;0.30;;;0.10;;
52294;SDS011;38243;53.212;6.574;2023-04-24T06:20:45;0.80;;;0.33;;
52294;SDS011;38243;53.212;6.574;2023-04-24T06:23:12;1.00;;;0.20;;
52294;SDS011;38243;53.212;6.574;2023-04-24T06:25:38;3.83;;;0.27;;
52294;SDS011;38243;53.212;6.574;2023-04-24T06:28:04;4.13;;;0.40;;
52294;SDS011;38243;53.212;6.574;2023-04-24T06:30:30;6.07;;;0.40;;
52294;SDS011;38243;53.212;6.574;2023-04-24T06:32:56;1.33;;;0.23;;
52294;SDS011;38243;53.212;6.574;2023-04-24T06:35:21;3.42;;;0.63;;
52294;SDS011;38243;53.212;6.574;2023-04-24T06:37:47;9.52;;;0.80;;
52294;SDS011;38243;53.212;6.574;2023-04-24T06:40:13;8.07;;;0.80;;
52294;SDS011;38243;53.212;6.574;2023-04-24T06:42:39;5.95;;;0.80;;
52294;SDS011;38243;53.212;6.574;2023-04-24T06:45:05;9.47;;;1.03;;
52294;SDS011;38243;53.212;6.574;2023-04-24T06:47:31;3.53;;;0.88;;
52294;SDS011;38243;53.212;6.574;2023-04-24T06:49:57;4.13;;;0.93;;
52294;SDS011;38243;53.212;6.574;2023-04-24T06:52:23;5.38;;;1.10;;
52294;SDS011;38243;53.212;6.574;2023-04-24T06:54:48;9.88;;;0.98;;
52294;SDS011;38243;53.212;6.574;2023-04-24T06:57:14;7.13;;;1.20;;
52294;SDS011;38243;53.212;6.574;2023-04-24T06:59:41;5.30;;;0.80;;
52294;SDS011;38243;53.212;6.574;2023-04-24T07:02:07;10.88;;;0.98;;
52294;SDS011;38243;53.212;6.574;2023-04-24T07:04:33;2.70;;;0.80;;
52294;SDS011;38243;53.212;6.574;2023-04-24T07:06:58;4.70;;;0.95;;
52294;SDS011;38243;53.212;6.574;2023-04-24T07:09:25;3.73;;;0.87;;
52294;SDS011;38243;53.212;6.574;2023-04-24T07:11:53;2.70;;;0.60;;
52294;SDS011;38243;53.212;6.574;2023-04-24T07:14:22;2.50;;;1.00;;
52294;SDS011;38243;53.212;6.574;2023-04-24T07:16:48;3.00;;;0.40;;
52294;SDS011;38243;53.212;6.574;2023-04-24T07:19:14;2.83;;;0.40;;
52294;SDS011;38243;53.212;6.574;2023-04-24T07:21:40;1.27;;;0.38;;
52294;SDS011;38243;53.212;6.574;2023-04-24T07:24:06;2.13;;;0.40;;
52294;SDS011;38243;53.212;6.574;2023-04-24T07:26:36;2.03;;;0.60;;
52294;SDS011;38243;53.212;6.574;2023-04-24T07:29:03;1.67;;;0.40;;
52294;SDS011;38243;53.212;6.574;2023-04-24T07:31:29;1.17;;;0.43;;
52294;SDS011;38243;53.212;6.574;2023-04-24T07:33:55;2.03;;;0.40;;
52294;SDS011;38243;53.212;6.574;2023-04-24T07:36:23;1.40;;;0.40;;
52294;SDS011;38243;53.212;6.574;2023-04-24T07:38:50;2.20;;;0.52;;
52294;SDS011;38243;53.212;6.574;2023-04-24T07:41:17;1.88;;;0.50;;
52294;SDS011;38243;53.212;6.574;2023-04-24T07:43:44;1.90;;;0.60;;
52294;SDS011;38243;53.212;6.574;2023-04-24T07:46:09;1.58;;;0.60;;
52294;SDS011;38243;53.212;6.574;2023-04-24T07:48:35;2.10;;;0.50;;
52294;SDS011;38243;53.212;6.574;2023-04-24T07:51:01;0.95;;;0.30;;
52294;SDS011;38243;53.212;6.574;2023-04-24T07:53:27;0.93;;;0.30;;
52294;SDS011;38243;53.212;6.574;2023-04-24T07:55:54;1.23;;;0.45;;
52294;SDS011;38243;53.212;6.574;2023-04-24T07:58:20;7.70;;;0.77;;
52294;SDS011;38243;53.212;6.574;2023-04-24T08:00:46;2.08;;;0.70;;
52294;SDS011;38243;53.212;6.574;2023-04-24T08:03:12;7.35;;;0.80;;
52294;SDS011;38243;53.212;6.574;2023-04-24T08:05:38;5.43;;;0.90;;
52294;SDS011;38243;53.212;6.574;2023-04-24T08:08:04;8.07;;;1.20;;
52294;SDS011;38243;53.212;6.574;2023-04-24T08:10:30;3.78;;;0.88;;
52294;SDS011;38243;53.212;6.574;2023-04-24T08:12:55;3.90;;;0.83;;
52294;SDS011;38243;53.212;6.574;2023-04-24T08:15:21;3.22;;;1.00;;
52294;SDS011;38243;53.212;6.574;2023-04-24T08:17:47;8.35;;;1.60;;
52294;SDS011;38243;53.212;6.574;2023-04-24T08:20:12;2.53;;;1.00;;
52294;SDS011;38243;53.212;6.574;2023-04-24T08:22:39;2.33;;;1.02;;
52294;SDS011;38243;53.212;6.574;2023-04-24T08:25:06;7.20;;;1.42;;
52294;SDS011;38243;53.212;6.574;2023-04-24T08:27:32;4.30;;;1.50;;
52294;SDS011;38243;53.212;6.574;2023-04-24T08:29:58;4.57;;;1.42;;
52294;SDS011;38243;53.212;6.574;2023-04-24T08:32:25;4.70;;;2.03;;
52294;SDS011;38243;53.212;6.574;2023-04-24T08:34:54;3.55;;;1.50;;
52294;SDS011;38243;53.212;6.574;2023-04-24T08:37:21;4.28;;;1.67;;
52294;SDS011;38243;53.212;6.574;2023-04-24T08:39:51;6.20;;;2.10;;
52294;SDS011;38243;53.212;6.574;2023-04-24T08:42:17;4.85;;;1.67;;
52294;SDS011;38243;53.212;6.574;2023-04-24T08:44:44;5.70;;;2.15;;
52294;SDS011;38243;53.212;6.574;2023-04-24T08:47:11;7.23;;;2.20;;
52294;SDS011;38243;53.212;6.574;2023-04-24T08:49:37;5.07;;;1.73;;
52294;SDS011;38243;53.212;6.574;2023-04-24T08:52:07;5.50;;;2.20;;
52294;SDS011;38243;53.212;6.574;2023-04-24T08:54:36;3.75;;;2.25;;
52294;SDS011;38243;53.212;6.574;2023-04-24T08:57:03;5.05;;;2.10;;
52294;SDS011;38243;53.212;6.574;2023-04-24T08:59:29;3.70;;;2.00;;
52294;SDS011;38243;53.212;6.574;2023-04-24T09:01:56;4.25;;;2.10;;
52294;SDS011;38243;53.212;6.574;2023-04-24T09:04:22;3.85;;;1.90;;
52294;SDS011;38243;53.212;6.574;2023-04-24T09:06:56;4.38;;;2.05;;
52294;SDS011;38243;53.212;6.574;2023-04-24T09:09:23;5.60;;;2.33;;
52294;SDS011;38243;53.212;6.574;2023-04-24T09:11:50;6.20;;;2.30;;
52294;SDS011;38243;53.212;6.574;2023-04-24T09:14:18;3.20;;;1.92;;
52294;SDS011;38243;53.212;6.574;2023-04-24T09:16:45;4.32;;;2.38;;
52294;SDS011;38243;53.212;6.574;2023-04-24T09:19:12;4.40;;;2.33;;
52294;SDS011;38243;53.212;6.574;2023-04-24T09:21:38;4.22;;;2.50;;
52294;SDS011;38243;53.212;6.574;2023-04-24T09:24:06;6.93;;;3.60;;
52294;SDS011;38243;53.212;6.574;2023-04-24T09:26:39;3.90;;;2.50;;
52294;SDS011;38243;53.212;6.574;2023-04-24T09:29:04;4.68;;;2.78;;
52294;SDS011;38243;53.212;6.574;2023-04-24T09:31:30;5.13;;;2.70;;
52294;SDS011;38243;53.212;6.574;2023-04-24T09:34:00;4.53;;;2.50;;
52294;SDS011;38243;53.212;6.574;2023-04-24T09:36:32;6.65;;;2.40;;
52294;SDS011;38243;53.212;6.574;2023-04-24T09:39:00;7.63;;;2.00;;
52294;SDS011;38243;53.212;6.574;2023-04-24T09:41:26;4.97;;;2.30;;
52294;SDS011;38243;53.212;6.574;2023-04-24T09:43:54;5.55;;;2.10;;
52294;SDS011;38243;53.212;6.574;2023-04-24T09:46:21;3.10;;;1.77;;
52294;SDS011;38243;53.212;6.574;2023-04-24T09:48:54;5.00;;;1.67;;
52294;SDS011;38243;53.212;6.574;2023-04-24T09:51:19;3.42;;;1.70;;
52294;SDS011;38243;53.212;6.574;2023-04-24T09:54:00;2.53;;;1.60;;
52294;SDS011;38243;53.212;6.574;2023-04-24T09:56:26;3.40;;;1.63;;
52294;SDS011;38243;53.212;6.574;2023-04-24T09:58:52;5.95;;;2.28;;
52294;SDS011;38243;53.212;6.574;2023-04-24T10:01:29;4.10;;;1.80;;
52294;SDS011;38243;53.212;6.574;2023-04-24T10:03:58;3.58;;;1.63;;
52294;SDS011;38243;53.212;6.574;2023-04-24T10:06:34;3.22;;;1.83;;
52294;SDS011;38243;53.212;6.574;2023-04-24T10:09:00;2.50;;;1.50;;
52294;SDS011;38243;53.212;6.574;2023-04-24T10:11:29;3.58;;;1.77;;
52294;SDS011;38243;53.212;6.574;2023-04-24T10:13:55;4.20;;;1.90;;
52294;SDS011;38243;53.212;6.574;2023-04-24T10:16:22;3.00;;;1.55;;
52294;SDS011;38243;53.212;6.574;2023-04-24T10:18:49;3.63;;;1.60;;
52294;SDS011;38243;53.212;6.574;2023-04-24T10:21:19;4.00;;;1.73;;
52294;SDS011;38243;53.212;6.574;2023-04-24T10:23:45;3.53;;;1.65;;
52294;SDS011;38243;53.212;6.574;2023-04-24T10:26:14;4.45;;;1.70;;
52294;SDS011;38243;53.212;6.574;2023-04-24T10:28:46;3.83;;;1.60;;
52294;SDS011;38243;53.212;6.574;2023-04-24T10:31:12;4.97;;;1.60;;
52294;SDS011;38243;53.212;6.574;2023-04-24T10:33:42;3.45;;;1.35;;
52294;SDS011;38243;53.212;6.574;2023-04-24T10:36:10;4.18;;;1.45;;
52294;SDS011;38243;53.212;6.574;2023-04-24T10:38:39;3.15;;;1.30;;
52294;SDS011;38243;53.212;6.574;2023-04-24T10:41:10;3.75;;;1.38;;
52294;SDS011;38243;53.212;6.574;2023-04-24T10:46:36;3.30;;;1.40;;
52294;SDS011;38243;53.212;6.574;2023-04-24T10:49:04;1.98;;;1.08;;
52294;SDS011;38243;53.212;6.574;2023-04-24T10:51:50;3.42;;;1.30;;
52294;SDS011;38243;53.212;6.574;2023-04-24T10:59:46;4.60;;;1.23;;
52294;SDS011;38243;53.212;6.574;2023-04-24T11:02:16;4.00;;;1.27;;
52294;SDS011;38243;53.212;6.574;2023-04-24T11:04:43;2.97;;;1.25;;
52294;SDS011;38243;53.212;6.574;2023-04-24T11:07:10;3.70;;;1.13;;
52294;SDS011;38243;53.212;6.574;2023-04-24T11:09:37;2.28;;;1.00;;
52294;SDS011;38243;53.212;6.574;2023-04-24T11:12:11;3.58;;;1.42;;
52294;SDS011;38243;53.212;6.574;2023-04-24T11:17:32;2.58;;;1.20;;
52294;SDS011;38243;53.212;6.574;2023-04-24T11:20:08;2.85;;;1.35;;
52294;SDS011;38243;53.212;6.574;2023-04-24T11:22:41;1.70;;;0.95;;
52294;SDS011;38243;53.212;6.574;2023-04-24T11:25:08;2.57;;;1.10;;
52294;SDS011;38243;53.212;6.574;2023-04-24T11:27:43;4.35;;;1.27;;
52294;SDS011;38243;53.212;6.574;2023-04-24T11:30:11;2.40;;;0.95;;
52294;SDS011;38243;53.212;6.574;2023-04-24T11:32:37;5.60;;;1.40;;
52294;SDS011;38243;53.212;6.574;2023-04-24T11:35:13;2.90;;;0.90;;
52294;SDS011;38243;53.212;6.574;2023-04-24T11:37:45;3.67;;;1.20;;
52294;SDS011;38243;53.212;6.574;2023-04-24T11:40:16;4.25;;;1.30;;
52294;SDS011;38243;53.212;6.574;2023-04-24T11:42:45;3.25;;;1.17;;
52294;SDS011;38243;53.212;6.574;2023-04-24T11:45:21;3.22;;;1.20;;
52294;SDS011;38243;53.212;6.574;2023-04-24T11:47:51;3.33;;;1.00;;
52294;SDS011;38243;53.212;6.574;2023-04-24T11:50:17;2.50;;;0.90;;
52294;SDS011;38243;53.212;6.574;2023-04-24T11:52:45;3.28;;;1.30;;
52294;SDS011;38243;53.212;6.574;2023-04-24T11:57:44;4.60;;;1.10;;
52294;SDS011;38243;53.212;6.574;2023-04-24T12:00:15;6.68;;;1.38;;
52294;SDS011;38243;53.212;6.574;2023-04-24T12:02:43;11.15;;;1.60;;
52294;SDS011;38243;53.212;6.574;2023-04-24T12:05:18;9.07;;;1.17;;
52294;SDS011;38243;53.212;6.574;2023-04-24T12:07:45;7.80;;;1.27;;
52294;SDS011;38243;53.212;6.574;2023-04-24T12:10:10;6.82;;;1.27;;
52294;SDS011;38243;53.212;6.574;2023-04-24T12:12:36;8.20;;;1.10;;
52294;SDS011;38243;53.212;6.574;2023-04-24T12:15:06;5.93;;;1.00;;
52294;SDS011;38243;53.212;6.574;2023-04-24T12:17:33;13.13;;;1.40;;
52294;SDS011;38243;53.212;6.574;2023-04-24T12:20:00;9.13;;;1.05;;
52294;SDS011;38243;53.212;6.574;2023-04-24T12:22:42;4.53;;;1.17;;
52294;SDS011;38243;53.212;6.574;2023-04-24T12:25:12;5.13;;;0.90;;
52294;SDS011;38243;53.212;6.574;2023-04-24T12:27:38;6.03;;;1.15;;
52294;SDS011;38243;53.212;6.574;2023-04-24T12:30:04;3.33;;;0.97;;
52294;SDS011;38243;53.212;6.574;2023-04-24T12:32:31;3.33;;;1.10;;
52294;SDS011;38243;53.212;6.574;2023-04-24T12:34:57;6.03;;;1.10;;
52294;SDS011;38243;53.212;6.574;2023-04-24T12:37:26;2.50;;;0.80;;
52294;SDS011;38243;53.212;6.574;2023-04-24T12:42:28;2.97;;;0.93;;
52294;SDS011;38243;53.212;6.574;2023-04-24T12:45:05;6.50;;;1.33;;
52294;SDS011;38243;53.212;6.574;2023-04-24T12:47:32;2.45;;;0.70;;
52294;SDS011;38243;53.212;6.574;2023-04-24T12:49:58;2.97;;;0.90;;
52294;SDS011;38243;53.212;6.574;2023-04-24T12:52:25;2.80;;;0.75;;
52294;SDS011;38243;53.212;6.574;2023-04-24T12:54:53;2.75;;;0.80;;
52294;SDS011;38243;53.212;6.574;2023-04-24T12:57:20;3.13;;;0.90;;
52294;SDS011;38243;53.212;6.574;2023-04-24T12:59:46;3.38;;;0.82;;
52294;SDS011;38243;53.212;6.574;2023-04-24T13:02:12;5.80;;;0.80;;
52294;SDS011;38243;53.212;6.574;2023-04-24T13:04:38;3.10;;;1.00;;
52294;SDS011;38243;53.212;6.574;2023-04-24T13:07:04;8.60;;;1.13;;
52294;SDS011;38243;53.212;6.574;2023-04-24T13:09:30;9.93;;;1.27;;
52294;SDS011;38243;53.212;6.574;2023-04-24T13:11:56;8.53;;;1.60;;
52294;SDS011;38243;53.212;6.574;2023-04-24T13:14:22;8.38;;;1.25;;
52294;SDS011;38243;53.212;6.574;2023-04-24T13:16:49;4.75;;;1.00;;
52294;SDS011;38243;53.212;6.574;2023-04-24T13:19:14;8.27;;;1.30;;
52294;SDS011;38243;53.212;6.574;2023-04-24T13:21:40;4.65;;;0.82;;
52294;SDS011;38243;53.212;6.574;2023-04-24T13:24:06;3.17;;;0.60;;
52294;SDS011;38243;53.212;6.574;2023-04-24T13:26:33;4.75;;;1.75;;
52294;SDS011;38243;53.212;6.574;2023-04-24T13:28:58;4.57;;;0.60;;
52294;SDS011;38243;53.212;6.574;2023-04-24T13:31:24;3.60;;;0.80;;
52294;SDS011;38243;53.212;6.574;2023-04-24T13:33:50;1.95;;;0.70;;
52294;SDS011;38243;53.212;6.574;2023-04-24T13:36:16;2.67;;;0.70;;
52294;SDS011;38243;53.212;6.574;2023-04-24T13:38:43;3.33;;;0.70;;
52294;SDS011;38243;53.212;6.574;2023-04-24T13:41:09;4.78;;;1.00;;
52294;SDS011;38243;53.212;6.574;2023-04-24T13:43:35;9.40;;;1.25;;
52294;SDS011;38243;53.212;6.574;2023-04-24T13:46:01;6.43;;;0.77;;
52294;SDS011;38243;53.212;6.574;2023-04-24T13:48:30;6.45;;;0.70;;
52294;SDS011;38243;53.212;6.574;2023-04-24T13:50:56;5.78;;;1.00;;
52294;SDS011;38243;53.212;6.574;2023-04-24T13:53:22;6.30;;;1.00;;
52294;SDS011;38243;53.212;6.574;2023-04-24T13:55:47;4.70;;;0.80;;
52294;SDS011;38243;53.212;6.574;2023-04-24T13:58:13;11.32;;;1.40;;
52294;SDS011;38243;53.212;6.574;2023-04-24T14:00:40;4.28;;;0.70;;
52294;SDS011;38243;53.212;6.574;2023-04-24T14:03:05;3.83;;;0.90;;
52294;SDS011;38243;53.212;6.574;2023-04-24T14:05:31;4.60;;;0.70;;
52294;SDS011;38243;53.212;6.574;2023-04-24T14:07:57;3.23;;;0.60;;
52294;SDS011;38243;53.212;6.574;2023-04-24T14:10:23;1.48;;;0.47;;
52294;SDS011;38243;53.212;6.574;2023-04-24T14:12:49;3.92;;;0.68;;
52294;SDS011;38243;53.212;6.574;2023-04-24T14:15:16;3.20;;;0.80;;
52294;SDS011;38243;53.212;6.574;2023-04-24T14:17:42;6.50;;;0.75;;
52294;SDS011;38243;53.212;6.574;2023-04-24T14:20:08;3.60;;;0.87;;
52294;SDS011;38243;53.212;6.574;2023-04-24T14:22:34;9.65;;;1.70;;
52294;SDS011;38243;53.212;6.574;2023-04-24T14:25:00;6.15;;;0.90;;
52294;SDS011;38243;53.212;6.574;2023-04-24T14:27:26;7.43;;;0.80;;
52294;SDS011;38243;53.212;6.574;2023-04-24T14:29:51;6.82;;;1.00;;
52294;SDS011;38243;53.212;6.574;2023-04-24T14:32:17;6.35;;;0.80;;
52294;SDS011;38243;53.212;6.574;2023-04-24T14:34:43;4.50;;;1.00;;
52294;SDS011;38243;53.212;6.574;2023-04-24T14:37:09;6.13;;;1.00;;
52294;SDS011;38243;53.212;6.574;2023-04-24T14:39:35;5.15;;;0.80;;
52294;SDS011;38243;53.212;6.574;2023-04-24T14:42:00;4.10;;;0.67;;
52294;SDS011;38243;53.212;6.574;2023-04-24T14:44:26;2.53;;;0.73;;
52294;SDS011;38243;53.212;6.574;2023-04-24T14:46:52;3.55;;;0.70;;
52294;SDS011;38243;53.212;6.574;2023-04-24T14:49:18;3.10;;;0.80;;
52294;SDS011;38243;53.212;6.574;2023-04-24T14:51:44;2.63;;;0.67;;
52294;SDS011;38243;53.212;6.574;2023-04-24T14:54:10;4.28;;;1.00;;
52294;SDS011;38243;53.212;6.574;2023-04-24T14:56:35;4.35;;;1.13;;
52294;SDS011;38243;53.212;6.574;2023-04-24T14:59:02;2.80;;;0.60;;
52294;SDS011;38243;53.212;6.574;2023-04-24T15:01:27;3.33;;;0.60;;